sensor_id;sensor_type;location;lat;lon;timestamp;pressure;altitude;pressure_sealevel;temperature;humidity
70437;BME280;57877;39.750;-104.894;2022-08-03T00:02:09;83544.76;;;32.83;13.19
70437;BME280;57877;39.750;-104.894;2022-08-03T00:04:34;83547.92;;;31.49;14.22
70437;BME280;57877;39.750;-104.894;2022-08-03T00:06:59;83540.60;;;31.70;14.26
70437;BME280;57877;39.750;-104.894;2022-08-03T00:09:24;83535.78;;;32.73;13.83
70437;BME280;57877;39.750;-104.894;2022-08-03T00:11:49;83543.67;;;32.22;14.11
70437;BME280;57877;39.750;-104.894;2022-08-03T00:14:14;83540.68;;;31.48;14.49
70437;BME280;57877;39.750;-104.894;2022-08-03T00:16:39;83542.80;;;32.16;13.72
70437;BME280;57877;39.750;-104.894;2022-08-03T00:19:04;83545.65;;;32.08;14.05
70437;BME280;57877;39.750;-104.894;2022-08-03T00:21:29;83552.05;;;31.42;14.34
70437;BME280;57877;39.750;-104.894;2022-08-03T00:23:54;83546.59;;;30.51;15.20
70437;BME280;57877;39.750;-104.894;2022-08-03T00:26:19;83551.80;;;31.62;14.21
70437;BME280;57877;39.750;-104.894;2022-08-03T00:28:44;83546.39;;;30.96;14.90
70437;BME280;57877;39.750;-104.894;2022-08-03T00:31:09;83546.35;;;31.79;14.53
70437;BME280;57877;39.750;-104.894;2022-08-03T00:33:34;83547.11;;;31.50;14.68
70437;BME280;57877;39.750;-104.894;2022-08-03T00:35:59;83551.31;;;31.62;14.60
70437;BME280;57877;39.750;-104.894;2022-08-03T00:38:24;83555.29;;;31.68;14.69
70437;BME280;57877;39.750;-104.894;2022-08-03T00:40:49;83553.29;;;31.72;14.63
70437;BME280;57877;39.750;-104.894;2022-08-03T00:43:15;83556.59;;;32.48;14.38
70437;BME280;57877;39.750;-104.894;2022-08-03T00:45:41;83551.19;;;31.26;15.37
70437;BME280;57877;39.750;-104.894;2022-08-03T00:48:07;83555.01;;;31.86;14.84
70437;BME280;57877;39.750;-104.894;2022-08-03T00:50:32;83553.12;;;31.58;15.14
70437;BME280;57877;39.750;-104.894;2022-08-03T00:52:57;83551.78;;;32.10;14.85
70437;BME280;57877;39.750;-104.894;2022-08-03T00:55:20;83552.04;;;31.34;15.23
70437;BME280;57877;39.750;-104.894;2022-08-03T00:57:45;83551.78;;;31.15;15.20
70437;BME280;57877;39.750;-104.894;2022-08-03T01:00:12;83557.41;;;31.46;14.94
70437;BME280;57877;39.750;-104.894;2022-08-03T01:02:35;83560.04;;;30.26;15.33
70437;BME280;57877;39.750;-104.894;2022-08-03T01:05:00;83563.66;;;30.48;15.65
70437;BME280;57877;39.750;-104.894;2022-08-03T01:07:35;83565.00;;;30.33;15.76
70437;BME280;57877;39.750;-104.894;2022-08-03T01:09:56;83565.41;;;30.37;15.70
70437;BME280;57877;39.750;-104.894;2022-08-03T01:12:21;83566.96;;;30.70;15.55
70437;BME280;57877;39.750;-104.894;2022-08-03T01:14:50;83567.04;;;31.34;14.63
70437;BME280;57877;39.750;-104.894;2022-08-03T01:17:10;83567.26;;;31.69;14.50
70437;BME280;57877;39.750;-104.894;2022-08-03T01:19:40;83569.45;;;32.10;14.33
70437;BME280;57877;39.750;-104.894;2022-08-03T01:22:03;83571.56;;;31.22;14.73
70437;BME280;57877;39.750;-104.894;2022-08-03T01:24:31;83570.52;;;31.83;14.36
70437;BME280;57877;39.750;-104.894;2022-08-03T01:26:53;83568.70;;;31.10;14.68
70437;BME280;57877;39.750;-104.894;2022-08-03T01:31:39;83572.01;;;29.94;15.59
70437;BME280;57877;39.750;-104.894;2022-08-03T01:34:02;83581.78;;;30.36;15.27
70437;BME280;57877;39.750;-104.894;2022-08-03T01:36:31;83601.32;;;29.54;17.53
70437;BME280;57877;39.750;-104.894;2022-08-03T01:38:55;83605.62;;;28.83;20.88
70437;BME280;57877;39.750;-104.894;2022-08-03T01:41:20;83610.93;;;27.97;23.25
70437;BME280;57877;39.750;-104.894;2022-08-03T01:43:43;83614.81;;;28.52;23.05
70437;BME280;57877;39.750;-104.894;2022-08-03T01:46:07;83611.71;;;28.12;23.50
70437;BME280;57877;39.750;-104.894;2022-08-03T01:48:32;83608.17;;;27.52;23.79
70437;BME280;57877;39.750;-104.894;2022-08-03T01:50:57;83606.63;;;27.00;24.56
70437;BME280;57877;39.750;-104.894;2022-08-03T01:53:23;83614.48;;;27.77;23.62
70437;BME280;57877;39.750;-104.894;2022-08-03T01:55:51;83617.74;;;27.41;23.55
70437;BME280;57877;39.750;-104.894;2022-08-03T01:58:15;83618.84;;;27.54;23.59
70437;BME280;57877;39.750;-104.894;2022-08-03T02:00:40;83629.19;;;27.85;23.40
70437;BME280;57877;39.750;-104.894;2022-08-03T02:03:07;83631.25;;;27.29;24.02
70437;BME280;57877;39.750;-104.894;2022-08-03T02:05:32;83633.55;;;27.39;24.26
70437;BME280;57877;39.750;-104.894;2022-08-03T02:07:58;83637.36;;;27.39;24.00
70437;BME280;57877;39.750;-104.894;2022-08-03T02:10:25;83641.24;;;26.84;24.57
70437;BME280;57877;39.750;-104.894;2022-08-03T02:12:49;83644.30;;;27.59;23.90
70437;BME280;57877;39.750;-104.894;2022-08-03T02:15:15;83646.91;;;27.68;24.00
70437;BME280;57877;39.750;-104.894;2022-08-03T02:17:39;83650.62;;;28.08;23.73
70437;BME280;57877;39.750;-104.894;2022-08-03T02:20:05;83654.29;;;27.69;23.56
70437;BME280;57877;39.750;-104.894;2022-08-03T02:22:29;83658.83;;;27.47;24.04
70437;BME280;57877;39.750;-104.894;2022-08-03T02:24:56;83664.67;;;27.44;24.59
70437;BME280;57877;39.750;-104.894;2022-08-03T02:27:23;83672.35;;;27.76;24.25
70437;BME280;57877;39.750;-104.894;2022-08-03T02:29:48;83675.99;;;28.43;23.71
70437;BME280;57877;39.750;-104.894;2022-08-03T02:32:13;83676.91;;;28.39;23.46
70437;BME280;57877;39.750;-104.894;2022-08-03T02:34:36;83680.06;;;28.28;23.65
70437;BME280;57877;39.750;-104.894;2022-08-03T02:37:02;83690.53;;;28.49;23.51
70437;BME280;57877;39.750;-104.894;2022-08-03T02:39:29;83704.21;;;27.99;23.78
70437;BME280;57877;39.750;-104.894;2022-08-03T02:41:55;83709.44;;;28.70;23.00
70437;BME280;57877;39.750;-104.894;2022-08-03T02:44:22;83715.13;;;29.01;22.82
70437;BME280;57877;39.750;-104.894;2022-08-03T02:46:45;83714.47;;;28.43;23.19
70437;BME280;57877;39.750;-104.894;2022-08-03T02:49:11;83715.26;;;28.32;23.18
70437;BME280;57877;39.750;-104.894;2022-08-03T02:51:36;83715.09;;;28.50;22.93
70437;BME280;57877;39.750;-104.894;2022-08-03T02:54:00;83715.30;;;27.90;23.46
70437;BME280;57877;39.750;-104.894;2022-08-03T02:56:27;83718.95;;;28.24;23.14
70437;BME280;57877;39.750;-104.894;2022-08-03T02:58:51;83719.06;;;28.37;23.15
70437;BME280;57877;39.750;-104.894;2022-08-03T03:01:16;83723.58;;;28.67;22.92
70437;BME280;57877;39.750;-104.894;2022-08-03T03:03:41;83733.91;;;28.58;22.74
70437;BME280;57877;39.750;-104.894;2022-08-03T03:06:06;83742.40;;;28.50;22.84
70437;BME280;57877;39.750;-104.894;2022-08-03T03:08:30;83752.63;;;28.36;22.91
70437;BME280;57877;39.750;-104.894;2022-08-03T03:10:59;83755.07;;;28.42;22.85
70437;BME280;57877;39.750;-104.894;2022-08-03T03:13:23;83754.89;;;28.78;22.80
70437;BME280;57877;39.750;-104.894;2022-08-03T03:15:49;83759.89;;;28.72;22.92
70437;BME280;57877;39.750;-104.894;2022-08-03T03:18:16;83763.11;;;28.39;22.85
70437;BME280;57877;39.750;-104.894;2022-08-03T03:20:40;83763.75;;;28.49;22.73
70437;BME280;57877;39.750;-104.894;2022-08-03T03:23:08;83761.82;;;28.41;22.98
70437;BME280;57877;39.750;-104.894;2022-08-03T03:25:33;83759.30;;;28.24;23.09
70437;BME280;57877;39.750;-104.894;2022-08-03T03:27:59;83751.45;;;28.57;22.87
70437;BME280;57877;39.750;-104.894;2022-08-03T03:30:25;83752.73;;;28.50;22.87
70437;BME280;57877;39.750;-104.894;2022-08-03T03:32:50;83754.32;;;28.62;22.79
70437;BME280;57877;39.750;-104.894;2022-08-03T03:35:17;83754.14;;;28.63;22.68
70437;BME280;57877;39.750;-104.894;2022-08-03T03:37:42;83760.27;;;28.63;22.70
70437;BME280;57877;39.750;-104.894;2022-08-03T03:40:10;83765.35;;;28.82;22.73
70437;BME280;57877;39.750;-104.894;2022-08-03T03:42:35;83772.30;;;28.50;22.70
70437;BME280;57877;39.750;-104.894;2022-08-03T03:45:03;83776.53;;;28.92;22.30
70437;BME280;57877;39.750;-104.894;2022-08-03T03:47:24;83778.44;;;28.93;21.95
70437;BME280;57877;39.750;-104.894;2022-08-03T03:49:50;83778.06;;;28.91;22.16
70437;BME280;57877;39.750;-104.894;2022-08-03T03:52:16;83775.73;;;28.66;22.24
70437;BME280;57877;39.750;-104.894;2022-08-03T03:54:43;83774.68;;;28.51;22.07
70437;BME280;57877;39.750;-104.894;2022-08-03T03:57:08;83776.76;;;28.34;22.14
70437;BME280;57877;39.750;-104.894;2022-08-03T03:59:37;83774.10;;;28.29;22.26
70437;BME280;57877;39.750;-104.894;2022-08-03T04:01:59;83771.46;;;28.69;21.87
70437;BME280;57877;39.750;-104.894;2022-08-03T04:04:26;83769.94;;;28.68;21.83
70437;BME280;57877;39.750;-104.894;2022-08-03T04:06:52;83763.56;;;28.65;21.87
70437;BME280;57877;39.750;-104.894;2022-08-03T04:09:18;83758.31;;;28.65;21.87
70437;BME280;57877;39.750;-104.894;2022-08-03T04:11:47;83756.70;;;28.62;21.89
70437;BME280;57877;39.750;-104.894;2022-08-03T04:14:12;83758.51;;;28.73;21.65
70437;BME280;57877;39.750;-104.894;2022-08-03T04:16:39;83760.14;;;28.55;21.75
70437;BME280;57877;39.750;-104.894;2022-08-03T04:19:04;83760.39;;;28.71;21.45
70437;BME280;57877;39.750;-104.894;2022-08-03T04:21:28;83763.38;;;28.47;21.90
70437;BME280;57877;39.750;-104.894;2022-08-03T04:23:55;83760.23;;;28.73;21.81
70437;BME280;57877;39.750;-104.894;2022-08-03T04:26:21;83760.74;;;28.30;22.26
70437;BME280;57877;39.750;-104.894;2022-08-03T04:28:45;83766.75;;;28.40;22.24
70437;BME280;57877;39.750;-104.894;2022-08-03T04:31:10;83769.62;;;28.26;22.45
70437;BME280;57877;39.750;-104.894;2022-08-03T04:33:37;83773.53;;;28.30;22.46
70437;BME280;57877;39.750;-104.894;2022-08-03T04:36:05;83776.26;;;28.33;22.41
70437;BME280;57877;39.750;-104.894;2022-08-03T04:38:29;83777.36;;;28.46;22.35
70437;BME280;57877;39.750;-104.894;2022-08-03T04:40:54;83778.73;;;28.44;22.41
70437;BME280;57877;39.750;-104.894;2022-08-03T04:43:20;83784.41;;;28.63;22.26
70437;BME280;57877;39.750;-104.894;2022-08-03T04:45:47;83792.03;;;28.84;22.26
70437;BME280;57877;39.750;-104.894;2022-08-03T04:48:13;83791.21;;;29.02;22.28
70437;BME280;57877;39.750;-104.894;2022-08-03T04:50:37;83797.92;;;28.23;22.40
70437;BME280;57877;39.750;-104.894;2022-08-03T04:53:04;83799.57;;;28.26;22.86
70437;BME280;57877;39.750;-104.894;2022-08-03T04:55:30;83805.12;;;28.26;22.81
70437;BME280;57877;39.750;-104.894;2022-08-03T04:57:55;83811.01;;;28.62;22.76
70437;BME280;57877;39.750;-104.894;2022-08-03T05:00:21;83812.06;;;28.51;22.72
70437;BME280;57877;39.750;-104.894;2022-08-03T05:02:47;83814.55;;;28.29;22.77
70437;BME280;57877;39.750;-104.894;2022-08-03T05:05:13;83814.99;;;28.64;22.64
70437;BME280;57877;39.750;-104.894;2022-08-03T05:07:39;83819.44;;;28.27;22.52
70437;BME280;57877;39.750;-104.894;2022-08-03T05:10:07;83822.44;;;28.90;22.52
70437;BME280;57877;39.750;-104.894;2022-08-03T05:12:31;83824.50;;;28.62;22.46
70437;BME280;57877;39.750;-104.894;2022-08-03T05:14:57;83826.23;;;28.98;22.47
70437;BME280;57877;39.750;-104.894;2022-08-03T05:17:23;83827.76;;;28.99;22.41
70437;BME280;57877;39.750;-104.894;2022-08-03T05:19:49;83833.63;;;28.50;22.54
70437;BME280;57877;39.750;-104.894;2022-08-03T05:22:15;83841.43;;;28.73;22.44
70437;BME280;57877;39.750;-104.894;2022-08-03T05:24:41;83842.00;;;28.40;22.73
70437;BME280;57877;39.750;-104.894;2022-08-03T05:27:07;83844.92;;;28.68;22.64
70437;BME280;57877;39.750;-104.894;2022-08-03T05:29:33;83846.81;;;28.52;22.82
70437;BME280;57877;39.750;-104.894;2022-08-03T05:32:00;83847.76;;;28.50;22.88
70437;BME280;57877;39.750;-104.894;2022-08-03T05:34:25;83845.65;;;28.74;22.95
70437;BME280;57877;39.750;-104.894;2022-08-03T05:36:51;83849.62;;;28.59;22.85
70437;BME280;57877;39.750;-104.894;2022-08-03T05:39:17;83852.45;;;28.83;22.87
70437;BME280;57877;39.750;-104.894;2022-08-03T05:41:43;83850.04;;;28.71;22.76
70437;BME280;57877;39.750;-104.894;2022-08-03T05:44:09;83850.00;;;28.87;22.77
70437;BME280;57877;39.750;-104.894;2022-08-03T05:46:35;83844.50;;;28.38;22.85
70437;BME280;57877;39.750;-104.894;2022-08-03T05:49:02;83842.52;;;28.57;23.04
70437;BME280;57877;39.750;-104.894;2022-08-03T05:51:27;83849.93;;;28.41;23.40
70437;BME280;57877;39.750;-104.894;2022-08-03T05:53:53;83860.58;;;28.45;23.40
70437;BME280;57877;39.750;-104.894;2022-08-03T05:56:22;83869.08;;;28.56;23.30
70437;BME280;57877;39.750;-104.894;2022-08-03T05:58:45;83870.42;;;28.58;23.33
70437;BME280;57877;39.750;-104.894;2022-08-03T06:01:10;83868.45;;;28.55;23.26
70437;BME280;57877;39.750;-104.894;2022-08-03T06:03:34;83873.02;;;28.81;23.15
70437;BME280;57877;39.750;-104.894;2022-08-03T06:05:59;83879.07;;;28.51;23.32
70437;BME280;57877;39.750;-104.894;2022-08-03T06:08:24;83882.66;;;28.52;23.41
70437;BME280;57877;39.750;-104.894;2022-08-03T06:10:50;83881.75;;;28.55;23.89
70437;BME280;57877;39.750;-104.894;2022-08-03T06:13:15;83879.25;;;28.79;24.53
70437;BME280;57877;39.750;-104.894;2022-08-03T06:15:40;83877.19;;;28.50;24.21
70437;BME280;57877;39.750;-104.894;2022-08-03T06:18:05;83873.53;;;28.26;24.05
70437;BME280;57877;39.750;-104.894;2022-08-03T06:20:30;83869.09;;;28.12;24.16
70437;BME280;57877;39.750;-104.894;2022-08-03T06:22:55;83861.27;;;28.22;23.97
70437;BME280;57877;39.750;-104.894;2022-08-03T06:25:20;83858.59;;;28.21;24.28
70437;BME280;57877;39.750;-104.894;2022-08-03T06:27:46;83846.97;;;27.56;24.55
70437;BME280;57877;39.750;-104.894;2022-08-03T06:30:13;83839.01;;;27.91;24.58
70437;BME280;57877;39.750;-104.894;2022-08-03T06:32:38;83836.23;;;27.96;24.45
70437;BME280;57877;39.750;-104.894;2022-08-03T06:35:04;83832.15;;;27.89;24.63
70437;BME280;57877;39.750;-104.894;2022-08-03T06:37:30;83824.49;;;28.06;24.71
70437;BME280;57877;39.750;-104.894;2022-08-03T06:39:56;83817.67;;;27.37;25.15
70437;BME280;57877;39.750;-104.894;2022-08-03T06:42:23;83813.51;;;27.38;25.29
70437;BME280;57877;39.750;-104.894;2022-08-03T06:44:48;83807.00;;;27.08;25.81
70437;BME280;57877;39.750;-104.894;2022-08-03T06:47:14;83796.77;;;27.51;25.31
70437;BME280;57877;39.750;-104.894;2022-08-03T06:49:40;83785.22;;;27.11;25.76
70437;BME280;57877;39.750;-104.894;2022-08-03T06:52:05;83781.75;;;26.98;25.85
70437;BME280;57877;39.750;-104.894;2022-08-03T06:54:31;83775.62;;;26.85;26.01
70437;BME280;57877;39.750;-104.894;2022-08-03T06:56:57;83773.65;;;27.20;25.89
70437;BME280;57877;39.750;-104.894;2022-08-03T06:59:23;83774.31;;;27.14;25.74
70437;BME280;57877;39.750;-104.894;2022-08-03T07:01:49;83774.38;;;26.59;26.25
70437;BME280;57877;39.750;-104.894;2022-08-03T07:04:15;83770.81;;;26.75;26.11
70437;BME280;57877;39.750;-104.894;2022-08-03T07:06:41;83771.03;;;25.72;26.88
70437;BME280;57877;39.750;-104.894;2022-08-03T07:09:07;83779.82;;;26.73;26.39
70437;BME280;57877;39.750;-104.894;2022-08-03T07:11:33;83793.35;;;26.85;25.99
70437;BME280;57877;39.750;-104.894;2022-08-03T07:13:59;83803.58;;;26.89;26.08
70437;BME280;57877;39.750;-104.894;2022-08-03T07:16:24;83800.55;;;26.97;25.79
70437;BME280;57877;39.750;-104.894;2022-08-03T07:18:50;83787.18;;;26.79;26.21
70437;BME280;57877;39.750;-104.894;2022-08-03T07:21:15;83788.12;;;27.11;26.05
70437;BME280;57877;39.750;-104.894;2022-08-03T07:23:41;83791.96;;;26.99;26.13
70437;BME280;57877;39.750;-104.894;2022-08-03T07:26:07;83788.69;;;26.94;26.28
70437;BME280;57877;39.750;-104.894;2022-08-03T07:28:32;83783.84;;;26.67;26.47
70437;BME280;57877;39.750;-104.894;2022-08-03T07:30:58;83776.13;;;26.57;26.56
70437;BME280;57877;39.750;-104.894;2022-08-03T07:33:23;83768.41;;;26.58;27.04
70437;BME280;57877;39.750;-104.894;2022-08-03T07:35:49;83773.39;;;26.76;26.68
70437;BME280;57877;39.750;-104.894;2022-08-03T07:38:15;83776.76;;;26.58;26.94
70437;BME280;57877;39.750;-104.894;2022-08-03T07:40:41;83773.34;;;26.23;27.35
70437;BME280;57877;39.750;-104.894;2022-08-03T07:43:07;83779.48;;;26.43;27.40
70437;BME280;57877;39.750;-104.894;2022-08-03T07:45:33;83772.80;;;26.53;27.35
70437;BME280;57877;39.750;-104.894;2022-08-03T07:47:59;83779.83;;;26.34;27.09
70437;BME280;57877;39.750;-104.894;2022-08-03T07:50:26;83778.57;;;26.43;26.93
70437;BME280;57877;39.750;-104.894;2022-08-03T07:52:52;83776.86;;;26.43;26.99
70437;BME280;57877;39.750;-104.894;2022-08-03T07:55:19;83774.85;;;26.54;26.85
70437;BME280;57877;39.750;-104.894;2022-08-03T07:57:43;83775.11;;;25.65;27.66
70437;BME280;57877;39.750;-104.894;2022-08-03T08:00:15;83777.34;;;26.49;26.88
70437;BME280;57877;39.750;-104.894;2022-08-03T08:02:35;83776.70;;;26.36;26.79
70437;BME280;57877;39.750;-104.894;2022-08-03T08:05:01;83777.07;;;26.63;26.74
70437;BME280;57877;39.750;-104.894;2022-08-03T08:07:27;83774.19;;;26.47;26.76
70437;BME280;57877;39.750;-104.894;2022-08-03T08:09:53;83773.42;;;26.83;26.70
70437;BME280;57877;39.750;-104.894;2022-08-03T08:12:19;83774.08;;;26.32;26.64
70437;BME280;57877;39.750;-104.894;2022-08-03T08:14:45;83773.41;;;26.75;26.65
70437;BME280;57877;39.750;-104.894;2022-08-03T08:17:11;83774.84;;;26.59;26.58
70437;BME280;57877;39.750;-104.894;2022-08-03T08:19:37;83776.50;;;26.34;26.50
70437;BME280;57877;39.750;-104.894;2022-08-03T08:22:03;83777.65;;;26.35;26.68
70437;BME280;57877;39.750;-104.894;2022-08-03T08:24:29;83775.80;;;26.11;26.50
70437;BME280;57877;39.750;-104.894;2022-08-03T08:26:55;83773.90;;;26.06;26.36
70437;BME280;57877;39.750;-104.894;2022-08-03T08:29:21;83774.89;;;25.88;26.56
70437;BME280;57877;39.750;-104.894;2022-08-03T08:31:47;83776.15;;;26.22;26.85
70437;BME280;57877;39.750;-104.894;2022-08-03T08:34:13;83778.50;;;25.63;27.18
70437;BME280;57877;39.750;-104.894;2022-08-03T08:36:39;83781.37;;;25.86;27.21
70437;BME280;57877;39.750;-104.894;2022-08-03T08:39:06;83780.35;;;25.53;27.30
70437;BME280;57877;39.750;-104.894;2022-08-03T08:41:31;83775.97;;;25.76;27.40
70437;BME280;57877;39.750;-104.894;2022-08-03T08:43:58;83774.64;;;25.83;27.29
70437;BME280;57877;39.750;-104.894;2022-08-03T08:46:24;83777.82;;;25.39;27.18
70437;BME280;57877;39.750;-104.894;2022-08-03T08:48:51;83780.32;;;25.20;27.38
70437;BME280;57877;39.750;-104.894;2022-08-03T08:51:17;83782.28;;;25.59;27.00
70437;BME280;57877;39.750;-104.894;2022-08-03T08:53:44;83780.07;;;25.72;26.83
70437;BME280;57877;39.750;-104.894;2022-08-03T08:56:07;83774.17;;;25.83;26.85
70437;BME280;57877;39.750;-104.894;2022-08-03T08:58:36;83769.63;;;25.71;26.56
70437;BME280;57877;39.750;-104.894;2022-08-03T09:00:59;83770.11;;;25.45;26.86
70437;BME280;57877;39.750;-104.894;2022-08-03T09:03:25;83770.09;;;25.64;26.99
70437;BME280;57877;39.750;-104.894;2022-08-03T09:05:51;83770.09;;;25.51;26.74
70437;BME280;57877;39.750;-104.894;2022-08-03T09:08:17;83773.13;;;25.50;26.67
70437;BME280;57877;39.750;-104.894;2022-08-03T09:10:43;83774.03;;;25.15;27.00
70437;BME280;57877;39.750;-104.894;2022-08-03T09:13:09;83777.56;;;25.54;26.91
70437;BME280;57877;39.750;-104.894;2022-08-03T09:15:35;83775.72;;;25.51;26.92
70437;BME280;57877;39.750;-104.894;2022-08-03T09:18:02;83774.64;;;25.57;27.13
70437;BME280;57877;39.750;-104.894;2022-08-03T09:20:27;83776.31;;;25.14;27.21
70437;BME280;57877;39.750;-104.894;2022-08-03T09:22:54;83778.60;;;25.57;27.07
70437;BME280;57877;39.750;-104.894;2022-08-03T09:25:17;83777.13;;;25.30;26.92
70437;BME280;57877;39.750;-104.894;2022-08-03T09:27:44;83776.39;;;25.69;26.68
70437;BME280;57877;39.750;-104.894;2022-08-03T09:30:13;83783.30;;;25.79;26.69
70437;BME280;57877;39.750;-104.894;2022-08-03T09:32:36;83785.25;;;25.81;26.61
70437;BME280;57877;39.750;-104.894;2022-08-03T09:35:04;83784.16;;;25.88;26.32
70437;BME280;57877;39.750;-104.894;2022-08-03T09:37:27;83776.12;;;25.97;26.16
70437;BME280;57877;39.750;-104.894;2022-08-03T09:39:53;83780.60;;;25.68;26.55
70437;BME280;57877;39.750;-104.894;2022-08-03T09:42:19;83784.07;;;25.78;26.56
70437;BME280;57877;39.750;-104.894;2022-08-03T09:44:47;83788.58;;;25.94;26.52
70437;BME280;57877;39.750;-104.894;2022-08-03T09:47:13;83793.50;;;25.92;26.51
70437;BME280;57877;39.750;-104.894;2022-08-03T09:49:38;83790.49;;;25.87;26.47
70437;BME280;57877;39.750;-104.894;2022-08-03T09:52:12;83782.19;;;25.94;26.41
70437;BME280;57877;39.750;-104.894;2022-08-03T09:54:30;83781.42;;;25.92;26.58
70437;BME280;57877;39.750;-104.894;2022-08-03T09:56:56;83780.29;;;25.58;26.58
70437;BME280;57877;39.750;-104.894;2022-08-03T09:59:26;83780.44;;;25.54;26.99
70437;BME280;57877;39.750;-104.894;2022-08-03T10:01:47;83777.66;;;25.42;27.29
70437;BME280;57877;39.750;-104.894;2022-08-03T10:04:14;83779.15;;;25.53;27.08
70437;BME280;57877;39.750;-104.894;2022-08-03T10:06:37;83780.86;;;25.51;27.02
70437;BME280;57877;39.750;-104.894;2022-08-03T10:09:08;83779.07;;;25.35;27.34
70437;BME280;57877;39.750;-104.894;2022-08-03T10:11:30;83779.83;;;24.70;29.51
70437;BME280;57877;39.750;-104.894;2022-08-03T10:13:54;83784.50;;;24.12;30.15
70437;BME280;57877;39.750;-104.894;2022-08-03T10:16:20;83787.15;;;24.42;30.35
70437;BME280;57877;39.750;-104.894;2022-08-03T10:18:46;83788.15;;;24.40;29.16
70437;BME280;57877;39.750;-104.894;2022-08-03T10:21:16;83785.84;;;24.60;29.57
70437;BME280;57877;39.750;-104.894;2022-08-03T10:23:40;83785.29;;;24.68;29.39
70437;BME280;57877;39.750;-104.894;2022-08-03T10:26:07;83780.39;;;25.02;28.99
70437;BME280;57877;39.750;-104.894;2022-08-03T10:28:35;83777.36;;;25.07;28.36
70437;BME280;57877;39.750;-104.894;2022-08-03T10:30:56;83778.04;;;25.38;28.54
70437;BME280;57877;39.750;-104.894;2022-08-03T10:33:25;83782.80;;;25.23;28.75
70437;BME280;57877;39.750;-104.894;2022-08-03T10:35:54;83785.55;;;25.37;28.20
70437;BME280;57877;39.750;-104.894;2022-08-03T10:38:18;83787.15;;;25.13;28.67
70437;BME280;57877;39.750;-104.894;2022-08-03T10:40:40;83793.50;;;25.35;28.03
70437;BME280;57877;39.750;-104.894;2022-08-03T10:43:09;83799.12;;;25.68;28.84
70437;BME280;57877;39.750;-104.894;2022-08-03T10:45:32;83806.31;;;25.30;28.29
70437;BME280;57877;39.750;-104.894;2022-08-03T10:47:56;83809.25;;;24.95;28.61
70437;BME280;57877;39.750;-104.894;2022-08-03T10:50:23;83816.91;;;25.21;28.87
70437;BME280;57877;39.750;-104.894;2022-08-03T10:52:54;83820.03;;;24.82;28.72
70437;BME280;57877;39.750;-104.894;2022-08-03T10:57:45;83823.09;;;25.26;28.15
70437;BME280;57877;39.750;-104.894;2022-08-03T11:00:02;83826.64;;;25.07;28.39
70437;BME280;57877;39.750;-104.894;2022-08-03T11:07:19;83832.04;;;25.32;28.73
70437;BME280;57877;39.750;-104.894;2022-08-03T11:09:44;83832.91;;;25.04;28.33
70437;BME280;57877;39.750;-104.894;2022-08-03T11:17:05;83846.55;;;25.01;29.09
70437;BME280;57877;39.750;-104.894;2022-08-03T11:19:23;83846.01;;;24.56;29.18
70437;BME280;57877;39.750;-104.894;2022-08-03T11:21:53;83850.08;;;24.75;29.37
70437;BME280;57877;39.750;-104.894;2022-08-03T11:26:38;83857.39;;;24.78;29.33
70437;BME280;57877;39.750;-104.894;2022-08-03T11:36:19;83868.60;;;23.96;30.90
70437;BME280;57877;39.750;-104.894;2022-08-03T11:43:43;83879.67;;;24.34;31.13
70437;BME280;57877;39.750;-104.894;2022-08-03T11:46:02;83884.93;;;23.82;30.60
70437;BME280;57877;39.750;-104.894;2022-08-03T11:48:33;83892.01;;;23.83;30.72
70437;BME280;57877;39.750;-104.894;2022-08-03T11:50:52;83894.93;;;23.77;31.02
70437;BME280;57877;39.750;-104.894;2022-08-03T11:53:19;83899.52;;;23.63;30.71
70437;BME280;57877;39.750;-104.894;2022-08-03T11:55:46;83908.00;;;23.57;30.96
70437;BME280;57877;39.750;-104.894;2022-08-03T11:58:15;83913.02;;;24.07;30.89
70437;BME280;57877;39.750;-104.894;2022-08-03T12:00:35;83913.86;;;24.03;30.87
70437;BME280;57877;39.750;-104.894;2022-08-03T12:03:04;83918.23;;;23.71;31.21
70437;BME280;57877;39.750;-104.894;2022-08-03T12:05:35;83922.77;;;23.70;31.30
70437;BME280;57877;39.750;-104.894;2022-08-03T12:07:53;83926.81;;;23.68;31.76
70437;BME280;57877;39.750;-104.894;2022-08-03T12:10:19;83926.07;;;24.04;31.49
70437;BME280;57877;39.750;-104.894;2022-08-03T12:12:46;83925.46;;;24.01;31.64
70437;BME280;57877;39.750;-104.894;2022-08-03T12:15:11;83931.82;;;23.62;32.36
70437;BME280;57877;39.750;-104.894;2022-08-03T12:17:39;83932.67;;;23.38;32.44
70437;BME280;57877;39.750;-104.894;2022-08-03T12:20:05;83932.09;;;22.81;33.01
70437;BME280;57877;39.750;-104.894;2022-08-03T12:22:32;83933.45;;;23.13;32.58
70437;BME280;57877;39.750;-104.894;2022-08-03T12:24:54;83933.77;;;23.36;31.75
70437;BME280;57877;39.750;-104.894;2022-08-03T12:27:23;83932.90;;;23.35;32.31
70437;BME280;57877;39.750;-104.894;2022-08-03T12:29:49;83927.97;;;23.60;31.76
70437;BME280;57877;39.750;-104.894;2022-08-03T12:32:14;83932.76;;;23.48;33.36
70437;BME280;57877;39.750;-104.894;2022-08-03T12:34:44;83935.24;;;23.72;34.03
70437;BME280;57877;39.750;-104.894;2022-08-03T12:37:04;83937.63;;;23.70;34.10
70437;BME280;57877;39.750;-104.894;2022-08-03T12:39:27;83944.13;;;24.04;33.42
70437;BME280;57877;39.750;-104.894;2022-08-03T12:41:54;83944.98;;;23.69;31.67
70437;BME280;57877;39.750;-104.894;2022-08-03T12:44:27;83949.87;;;23.58;31.57
70437;BME280;57877;39.750;-104.894;2022-08-03T12:46:43;83956.73;;;23.82;31.04
70437;BME280;57877;39.750;-104.894;2022-08-03T12:49:15;83961.29;;;24.16;31.10
70437;BME280;57877;39.750;-104.894;2022-08-03T12:51:40;83962.98;;;24.05;30.76